METAR Formatted Surface Weather Observation
Issued by NWS Albuquerque, NM

Home | Current Version | Previous Version | Text Only | Print | Product List | Glossary On
Versions: 1 2 3 4 5 6 7 8 9 10 11 12 13 14 15 16 17 18 19 20 21 22 23 24 25 26 27 28 29 30 31 32 33 34 35 36 37 38 39 40 41 42 43 44 45 46 47 48 49 50
000
SAUS45 KABQ 012353
MTRABQ
METAR KABQ 012352Z 28018G23KT 10SM SCT120 SCT180 23/M06 A2986 RMK
AO2 PK WND 28035/2307 SLP050 VIRGA ALQDS T02331056 10244 20211 56014



USA.gov is the U.S. government's official web portal to all federal, state and local government web resources and services.